createdAt,value
2019-04-22T00:02:40.046Z,24.00
2019-04-22T00:05:18.890Z,24.00
2019-04-22T00:08:08.575Z,24.00
2019-04-22T00:10:55.813Z,24.00
2019-04-22T00:13:32.407Z,24.00
2019-04-22T00:16:07.293Z,23.90
2019-04-22T00:19:01.681Z,24.00
2019-04-22T00:21:26.224Z,24.00
2019-04-22T00:24:05.222Z,24.00
2019-04-22T00:26:48.357Z,23.90
2019-04-22T00:32:12.321Z,24.00
2019-04-22T00:34:54.756Z,23.90
2019-04-22T00:37:35.776Z,23.90
2019-04-22T00:40:06.940Z,24.00
2019-04-22T00:42:47.645Z,23.90
2019-04-22T00:45:26.913Z,24.00
2019-04-22T00:48:09.216Z,24.00
2019-04-22T00:50:58.335Z,23.90
2019-04-22T00:53:23.983Z,23.90
2019-04-22T00:58:45.381Z,23.90
2019-04-22T01:01:26.698Z,23.90
2019-04-22T01:06:38.434Z,23.90
2019-04-22T01:09:17.142Z,24.00
2019-04-22T01:11:55.660Z,24.00
2019-04-22T01:14:40.242Z,24.00
2019-04-22T01:17:11.969Z,23.90
2019-04-22T01:19:56.260Z,23.90
2019-04-22T01:22:30.343Z,23.90
2019-04-22T01:25:08.775Z,23.90
2019-04-22T01:27:43.399Z,23.90
2019-04-22T01:30:14.757Z,23.90
2019-04-22T01:32:45.691Z,23.90
2019-04-22T01:35:34.575Z,23.90
2019-04-22T01:38:13.200Z,23.90
2019-04-22T01:41:07.232Z,23.90
2019-04-22T01:43:53.663Z,23.90
2019-04-22T01:46:25.748Z,23.90
2019-04-22T01:49:02.687Z,23.90
2019-04-22T01:51:47.235Z,23.90
2019-04-22T01:54:22.226Z,23.90
2019-04-22T01:56:52.616Z,23.90
2019-04-22T01:59:23.708Z,23.90
2019-04-22T02:02:09.240Z,23.90
2019-04-22T02:04:55.931Z,23.90
2019-04-22T02:07:28.089Z,23.90
2019-04-22T02:10:05.671Z,23.90
2019-04-22T02:12:43.091Z,23.90
2019-04-22T02:15:20.512Z,23.90
2019-04-22T02:18:06.919Z,23.90
2019-04-22T02:20:40.705Z,23.90
2019-04-22T02:23:45.179Z,23.90
2019-04-22T02:28:52.584Z,23.90
2019-04-22T02:39:20.024Z,23.90
2019-04-22T02:42:03.163Z,23.90
2019-04-22T02:44:36.788Z,23.90
2019-04-22T02:47:20.810Z,23.90
2019-04-22T02:50:00.807Z,23.90
2019-04-22T02:52:37.420Z,23.90
2019-04-22T02:55:41.310Z,23.90
2019-04-22T02:57:49.042Z,23.80
2019-04-22T03:00:35.411Z,23.90
2019-04-22T03:03:21.156Z,23.80
2019-04-22T03:05:56.629Z,23.80
2019-04-22T03:08:30.300Z,23.80
2019-04-22T03:11:12.438Z,23.80
2019-04-22T03:13:47.187Z,23.90
2019-04-22T03:19:08.008Z,23.80
2019-04-22T03:37:56.179Z,23.80
2019-04-22T03:43:48.618Z,23.80
2019-04-22T03:45:45.662Z,23.80
2019-04-22T03:48:35.885Z,23.80
2019-04-22T03:51:25.296Z,23.80
2019-04-22T03:54:02.910Z,23.80
2019-04-22T03:59:21.763Z,23.80
2019-04-22T04:02:02.605Z,23.80
2019-04-22T04:07:11.048Z,23.80
2019-04-22T04:09:38.610Z,23.80
2019-04-22T04:15:07.481Z,23.80
2019-04-22T04:17:45.893Z,23.80
2019-04-22T04:20:21.452Z,23.80
2019-04-22T04:23:04.886Z,23.80
2019-04-22T04:30:41.333Z,23.80
2019-04-22T04:33:22.822Z,23.80
2019-04-22T04:36:02.434Z,23.80
2019-04-22T04:38:48.039Z,23.80
2019-04-22T04:41:26.785Z,23.80
2019-04-22T04:44:03.753Z,23.80
2019-04-22T04:49:19.304Z,23.80
2019-04-22T04:54:31.795Z,23.80
2019-04-22T04:57:11.735Z,23.80
2019-04-22T05:00:18.403Z,23.80
2019-04-22T05:02:28.718Z,23.80
2019-04-22T05:07:40.815Z,23.80
2019-04-22T05:10:26.433Z,23.80
2019-04-22T05:12:56.876Z,23.80
2019-04-22T05:23:25.036Z,23.80
2019-04-22T05:26:04.289Z,23.80
2019-04-22T05:28:38.142Z,23.70
2019-04-22T05:31:30.894Z,23.80
2019-04-22T05:33:56.768Z,23.70
2019-04-22T05:36:32.775Z,23.80
2019-04-22T05:39:13.926Z,23.80
2019-04-22T05:41:48.897Z,23.80
2019-04-22T05:44:32.554Z,23.70
2019-04-22T05:47:05.980Z,23.80
2019-04-22T05:49:45.762Z,23.80
2019-04-22T05:52:21.288Z,23.70
2019-04-22T05:55:03.000Z,23.80
2019-04-22T05:57:37.210Z,23.70
2019-04-22T06:00:29.457Z,23.70
2019-04-22T06:05:39.848Z,23.70
2019-04-22T06:08:14.225Z,23.70
2019-04-22T06:10:54.141Z,23.80
2019-04-22T06:13:23.309Z,23.80
2019-04-22T06:16:09.455Z,23.80
2019-04-22T06:18:47.013Z,23.70
2019-04-22T06:21:28.058Z,23.70
2019-04-22T06:24:11.248Z,23.70
2019-04-22T06:26:59.358Z,23.80
2019-04-22T06:29:19.638Z,23.70
2019-04-22T06:32:17.909Z,23.70
2019-04-22T06:34:35.903Z,23.80
2019-04-22T06:37:18.734Z,23.70
2019-04-22T06:39:53.743Z,23.70
2019-04-22T06:45:17.387Z,23.80
2019-04-22T06:50:30.252Z,23.80
2019-04-22T06:53:05.283Z,23.80
2019-04-22T06:58:36.655Z,23.80
2019-04-22T07:01:17.830Z,23.80
2019-04-22T07:03:45.897Z,23.80
2019-04-22T07:06:23.986Z,23.80
2019-04-22T07:11:29.710Z,23.80
2019-04-22T07:14:04.277Z,23.80
2019-04-22T07:19:28.828Z,23.80
2019-04-22T07:22:09.693Z,23.80
2019-04-22T07:27:18.925Z,23.80
2019-04-22T07:30:03.565Z,23.80
2019-04-22T07:35:19.292Z,23.80
2019-04-22T07:37:48.331Z,23.80
2019-04-22T07:40:34.132Z,23.90
2019-04-22T07:43:15.483Z,23.90
2019-04-22T07:46:00.328Z,23.90
2019-04-22T07:48:35.687Z,23.90
2019-04-22T07:53:39.484Z,23.90
2019-04-22T07:56:18.725Z,23.90
2019-04-22T07:59:00.655Z,24.00
2019-04-22T08:01:30.950Z,24.00
2019-04-22T08:06:54.151Z,24.00
2019-04-22T08:09:37.281Z,24.00
2019-04-22T08:12:02.058Z,24.00
2019-04-22T08:14:49.334Z,24.00
2019-04-22T08:17:44.807Z,24.00
2019-04-22T08:20:03.037Z,24.10
2019-04-22T08:22:47.889Z,24.00
2019-04-22T08:25:16.772Z,24.10
2019-04-22T08:27:56.793Z,24.10
2019-04-22T08:33:15.496Z,24.10
2019-04-22T08:36:07.202Z,24.10
2019-04-22T08:38:37.037Z,24.20
2019-04-22T08:41:23.024Z,24.10
2019-04-22T08:46:33.240Z,24.20
2019-04-22T08:49:30.463Z,24.20
2019-04-22T08:51:49.097Z,24.20
2019-04-22T08:54:31.220Z,24.20
2019-04-22T08:59:43.212Z,24.30
2019-04-22T09:02:27.676Z,24.30
2019-04-22T09:05:10.649Z,24.30
2019-04-22T09:07:47.009Z,24.30
2019-04-22T09:10:21.899Z,24.30
2019-04-22T09:15:34.522Z,24.30
2019-04-22T09:18:14.253Z,24.40
2019-04-22T09:20:58.817Z,24.40
2019-04-22T09:23:32.162Z,24.40
2019-04-22T09:26:08.918Z,24.40
2019-04-22T09:28:54.506Z,24.40
2019-04-22T09:33:59.685Z,24.40
2019-04-22T09:36:40.867Z,24.40
2019-04-22T09:39:28.312Z,24.40
2019-04-22T09:42:00.983Z,24.40
2019-04-22T09:44:36.525Z,24.40
2019-04-22T09:47:12.838Z,24.50
2019-04-22T09:49:54.984Z,24.50
2019-04-22T09:52:29.459Z,24.50
2019-04-22T09:57:47.139Z,24.50
2019-04-22T10:00:20.872Z,24.50
2019-04-22T10:03:06.865Z,24.50
2019-04-22T10:05:48.291Z,24.50
2019-04-22T10:08:29.657Z,24.50
2019-04-22T10:11:04.547Z,24.60
2019-04-22T10:13:45.608Z,24.60
2019-04-22T10:16:17.359Z,24.60
2019-04-22T10:18:52.868Z,24.60
2019-04-22T10:24:09.275Z,24.70
2019-04-22T10:26:46.402Z,24.70
2019-04-22T10:29:33.141Z,24.70
2019-04-22T10:32:00.860Z,24.70
2019-04-22T10:34:26.983Z,24.80
2019-04-22T10:36:58.824Z,24.90
2019-04-22T10:39:42.246Z,24.90
2019-04-22T10:42:11.661Z,24.90
2019-04-22T10:44:49.893Z,24.90
2019-04-22T10:47:27.956Z,24.90
2019-04-22T10:50:06.912Z,24.90
2019-04-22T10:52:43.607Z,24.90
2019-04-22T10:55:21.320Z,24.90
2019-04-22T10:57:57.053Z,25.00
2019-04-22T11:00:33.636Z,24.90
2019-04-22T11:03:11.909Z,25.00
2019-04-22T11:05:50.581Z,25.00
2019-04-22T11:08:33.903Z,25.00
2019-04-22T11:11:18.921Z,25.00
2019-04-22T11:13:44.135Z,25.00
2019-04-22T11:16:21.692Z,25.00
2019-04-22T11:18:59.326Z,25.00
2019-04-22T11:21:36.004Z,25.00
2019-04-22T11:24:12.886Z,25.00
2019-04-22T11:26:49.405Z,25.00
2019-04-22T11:29:25.973Z,25.10
2019-04-22T11:32:04.214Z,25.00
2019-04-22T11:34:41.150Z,25.00
2019-04-22T11:37:18.588Z,25.10
2019-04-22T11:40:06.901Z,25.10
2019-04-22T11:42:34.325Z,25.10
2019-04-22T11:45:13.195Z,25.00
2019-04-22T11:47:51.003Z,25.10
2019-04-22T11:53:13.424Z,25.10
2019-04-22T11:55:50.827Z,25.10
2019-04-22T11:58:28.874Z,25.10
2019-04-22T12:01:06.722Z,25.10
2019-04-22T12:03:44.113Z,25.10
2019-04-22T12:06:20.068Z,25.10
2019-04-22T12:08:57.549Z,25.10
2019-04-22T12:11:36.497Z,25.10
2019-04-22T12:14:13.921Z,25.10
2019-04-22T12:16:50.661Z,25.10
2019-04-22T12:19:27.191Z,25.10
2019-04-22T12:22:04.828Z,25.10
2019-04-22T12:24:42.592Z,25.10
2019-04-22T12:27:20.443Z,25.10
2019-04-22T12:29:58.657Z,25.10
2019-04-22T12:32:35.791Z,25.10
2019-04-22T12:35:13.691Z,25.10
2019-04-22T12:37:55.673Z,25.10
2019-04-22T12:40:39.469Z,25.10
2019-04-22T12:43:09.908Z,25.10
2019-04-22T12:45:45.013Z,25.10
2019-04-22T12:48:21.397Z,25.10
2019-04-22T12:50:58.618Z,25.10
2019-04-22T12:53:36.067Z,25.10
2019-04-22T12:56:13.075Z,25.10
2019-04-22T12:58:49.911Z,25.00
2019-04-22T13:01:26.907Z,25.00
2019-04-22T13:04:09.365Z,25.00
2019-04-22T13:06:42.029Z,25.00
2019-04-22T13:09:19.547Z,25.00
2019-04-22T13:11:57.174Z,25.00
2019-04-22T13:14:34.961Z,25.00
2019-04-22T13:17:12.310Z,25.00
2019-04-22T13:19:49.956Z,25.00
2019-04-22T13:22:27.046Z,25.00
2019-04-22T13:25:06.054Z,25.00
2019-04-22T13:27:42.906Z,25.00
2019-04-22T13:30:20.821Z,25.00
2019-04-22T13:32:57.013Z,25.00
2019-04-22T13:35:34.014Z,25.00
2019-04-22T13:38:11.100Z,25.00
2019-04-22T13:41:02.170Z,24.90
2019-04-22T13:43:27.247Z,24.90
2019-04-22T13:46:05.608Z,24.90
2019-04-22T13:49:11.290Z,24.90
2019-04-22T13:56:55.444Z,24.90
2019-04-22T13:59:26.086Z,24.90
2019-04-22T14:02:12.596Z,24.90
2019-04-22T14:04:50.667Z,24.90
2019-04-22T14:07:26.814Z,24.90
2019-04-22T14:10:06.499Z,24.80
2019-04-22T14:12:42.930Z,24.80
2019-04-22T14:15:20.146Z,24.80
2019-04-22T14:17:56.804Z,24.80
2019-04-22T14:20:34.446Z,24.80
2019-04-22T14:23:12.275Z,24.80
2019-04-22T14:25:50.828Z,24.80
2019-04-22T14:28:28.572Z,24.80
2019-04-22T14:31:06.648Z,24.80
2019-04-22T14:33:46.569Z,24.80
2019-04-22T14:36:23.424Z,24.80
2019-04-22T14:39:01.912Z,24.80
2019-04-22T14:41:54.815Z,24.80
2019-04-22T14:45:52.236Z,24.80
2019-04-22T14:47:20.106Z,24.70
2019-04-22T14:49:52.853Z,24.80
2019-04-22T14:52:33.239Z,24.70
2019-04-22T14:55:01.903Z,24.70
2019-04-22T14:57:29.923Z,24.70
2019-04-22T15:00:08.089Z,24.70
2019-04-22T15:02:45.938Z,24.70
2019-04-22T15:05:22.249Z,24.70
2019-04-22T15:07:59.134Z,24.70
2019-04-22T15:10:36.281Z,24.70
2019-04-22T15:13:13.443Z,24.70
2019-04-22T15:16:15.958Z,24.70
2019-04-22T15:19:00.236Z,24.70
2019-04-22T15:21:36.958Z,24.70
2019-04-22T15:24:27.569Z,24.60
2019-04-22T15:27:04.811Z,24.70
2019-04-22T15:29:43.146Z,24.70
2019-04-22T15:32:19.308Z,24.60
2019-04-22T15:34:55.532Z,24.70
2019-04-22T15:37:33.183Z,24.60
2019-04-22T15:40:12.939Z,24.60
2019-04-22T15:42:50.742Z,24.60
2019-04-22T15:45:28.716Z,24.60
2019-04-22T15:48:06.133Z,24.60
2019-04-22T15:50:42.645Z,24.60
2019-04-22T15:53:20.100Z,24.60
2019-04-22T15:55:56.629Z,24.60
2019-04-22T15:58:33.545Z,24.60
2019-04-22T16:01:17.732Z,24.60
2019-04-22T16:03:47.486Z,24.60
2019-04-22T16:06:26.056Z,24.50
2019-04-22T16:09:06.810Z,24.60
2019-04-22T16:11:43.300Z,24.60
2019-04-22T16:14:23.883Z,24.50
2019-04-22T16:16:58.924Z,24.50
2019-04-22T16:19:36.950Z,24.60
2019-04-22T16:22:18.556Z,24.50
2019-04-22T16:25:11.278Z,24.50
2019-04-22T16:27:50.157Z,24.50
2019-04-22T16:30:27.782Z,24.50
2019-04-22T16:33:05.721Z,24.50
2019-04-22T16:35:42.650Z,24.50
2019-04-22T16:38:19.185Z,24.50
2019-04-22T16:41:02.852Z,24.50
2019-04-22T16:43:40.636Z,24.50
2019-04-22T16:46:17.622Z,24.50
2019-04-22T16:48:54.186Z,24.50
2019-04-22T16:51:32.071Z,24.50
2019-04-22T16:54:08.913Z,24.50
2019-04-22T16:56:45.847Z,24.50
2019-04-22T16:59:22.577Z,24.50
2019-04-22T17:02:35.100Z,24.50
2019-04-22T17:05:35.846Z,24.50
2019-04-22T17:08:14.179Z,24.50
2019-04-22T17:10:53.672Z,24.50
2019-04-22T17:13:32.733Z,24.50
2019-04-22T17:16:09.734Z,24.50
2019-04-22T17:18:47.099Z,24.50
2019-04-22T17:21:23.600Z,24.50
2019-04-22T17:24:01.381Z,24.50
2019-04-22T17:26:38.766Z,24.50
2019-04-22T17:29:18.664Z,24.50
2019-04-22T17:32:00.656Z,24.50
2019-04-22T17:34:33.718Z,24.50
2019-04-22T17:37:19.267Z,24.50
2019-04-22T17:40:13.275Z,24.40
2019-04-22T17:42:49.516Z,24.40
2019-04-22T17:45:44.996Z,24.40
2019-04-22T17:48:42.039Z,24.40
2019-04-22T17:51:29.859Z,24.40
2019-04-22T17:56:42.239Z,24.40
2019-04-22T17:59:17.217Z,24.40
2019-04-22T18:01:48.889Z,24.40
2019-04-22T18:04:10.490Z,24.40
2019-04-22T18:07:13.354Z,24.40
2019-04-22T18:10:23.857Z,24.40
2019-04-22T18:12:33.571Z,24.40
2019-04-22T18:15:06.733Z,24.40
2019-04-22T18:17:41.092Z,24.40
2019-04-22T18:20:14.514Z,24.40
2019-04-22T18:22:49.370Z,24.40
2019-04-22T18:25:27.712Z,24.30
2019-04-22T18:28:18.788Z,24.40
2019-04-22T18:30:47.773Z,24.40
2019-04-22T18:33:31.301Z,24.40
2019-04-22T18:36:03.895Z,24.40
2019-04-22T18:38:56.209Z,24.40
2019-04-22T18:41:17.836Z,24.40
2019-04-22T18:44:06.238Z,24.40
2019-04-22T18:46:36.918Z,24.40
2019-04-22T18:49:15.271Z,24.40
2019-04-22T18:52:19.899Z,24.40
2019-04-22T18:55:17.880Z,24.40
2019-04-22T18:58:05.437Z,24.30
2019-04-22T19:00:34.115Z,24.40
2019-04-22T19:03:17.691Z,24.40
2019-04-22T19:06:13.174Z,24.40
2019-04-22T19:11:35.456Z,24.30
2019-04-22T19:14:14.355Z,24.30
2019-04-22T19:16:45.506Z,24.30
2019-04-22T19:21:57.813Z,24.30
2019-04-22T19:24:39.462Z,24.30
2019-04-22T19:27:23.259Z,24.30
2019-04-22T19:30:05.225Z,24.30
2019-04-22T19:32:38.093Z,24.30
2019-04-22T19:35:14.444Z,24.30
2019-04-22T19:37:49.137Z,24.30
2019-04-22T19:40:55.566Z,24.30
2019-04-22T19:43:25.498Z,24.30
2019-04-22T19:45:58.958Z,24.30
2019-04-22T19:48:38.961Z,24.30
2019-04-22T19:51:15.683Z,24.30
2019-04-22T19:53:52.422Z,24.30
2019-04-22T19:56:22.965Z,24.30
2019-04-22T19:59:07.052Z,24.30
2019-04-22T20:02:10.197Z,24.30
2019-04-22T20:05:00.384Z,24.30
2019-04-22T20:07:40.530Z,24.30
2019-04-22T20:10:25.070Z,24.30
2019-04-22T20:12:56.876Z,24.30
2019-04-22T20:15:34.110Z,24.30
2019-04-22T20:18:27.035Z,24.30
2019-04-22T20:20:58.497Z,24.30
2019-04-22T20:23:25.664Z,24.30
2019-04-22T20:26:10.416Z,24.30
2019-04-22T20:28:52.554Z,24.30
2019-04-22T20:31:31.826Z,24.30
2019-04-22T20:34:14.696Z,24.30
2019-04-22T20:37:01.475Z,24.30
2019-04-22T20:39:33.371Z,24.20
2019-04-22T20:42:16.697Z,24.20
2019-04-22T20:44:47.298Z,24.20
2019-04-22T20:47:18.136Z,24.20
2019-04-22T20:50:04.468Z,24.20
2019-04-22T20:52:50.373Z,24.20
2019-04-22T20:55:13.094Z,24.20
2019-04-22T20:57:53.062Z,24.20
2019-04-22T21:00:25.252Z,24.20
2019-04-22T21:02:59.750Z,24.20
2019-04-22T21:05:40.064Z,24.20
2019-04-22T21:08:30.679Z,24.20
2019-04-22T21:10:58.527Z,24.20
2019-04-22T21:13:41.021Z,24.20
2019-04-22T21:16:26.843Z,24.20
2019-04-22T21:18:56.604Z,24.20
2019-04-22T21:21:44.979Z,24.20
2019-04-22T21:24:18.585Z,24.20
2019-04-22T21:26:57.086Z,24.20
2019-04-22T21:29:30.670Z,24.20
2019-04-22T21:32:15.661Z,24.20
2019-04-22T21:35:03.235Z,24.20
2019-04-22T21:37:57.068Z,24.20
2019-04-22T21:40:05.233Z,24.20
2019-04-22T21:42:53.080Z,24.20
2019-04-22T21:45:21.715Z,24.20
2019-04-22T21:48:13.893Z,24.20
2019-04-22T21:53:33.052Z,24.20
2019-04-22T21:56:11.617Z,24.20
2019-04-22T21:58:53.255Z,24.20
2019-04-22T22:04:20.737Z,24.20
2019-04-22T22:06:48.876Z,24.20
2019-04-22T22:09:39.930Z,24.20
2019-04-22T22:12:11.923Z,24.20
2019-04-22T22:15:00.543Z,24.20
2019-04-22T22:17:31.411Z,24.20
2019-04-22T22:20:06.195Z,24.20
2019-04-22T22:23:20.930Z,24.20
2019-04-22T22:25:28.794Z,24.20
2019-04-22T22:28:07.750Z,24.30
2019-04-22T22:33:24.250Z,24.30
2019-04-22T22:36:00.957Z,24.20
2019-04-22T22:38:35.170Z,24.20
2019-04-22T22:41:00.056Z,24.20
2019-04-22T22:43:43.264Z,24.30
2019-04-22T22:46:28.417Z,24.30
2019-04-22T22:49:21.854Z,24.30
2019-04-22T22:52:02.245Z,24.30
2019-04-22T22:54:34.507Z,24.30
2019-04-22T22:57:17.458Z,24.20
2019-04-22T22:59:50.229Z,24.20
2019-04-22T23:02:22.407Z,24.20
2019-04-22T23:05:05.900Z,24.20
2019-04-22T23:07:47.818Z,24.20
2019-04-22T23:10:24.806Z,24.20
2019-04-22T23:13:08.452Z,24.20
2019-04-22T23:15:35.876Z,24.30
2019-04-22T23:17:58.397Z,24.20
2019-04-22T23:20:41.427Z,24.20
2019-04-22T23:23:33.277Z,24.30
2019-04-22T23:26:10.466Z,24.30
2019-04-22T23:28:52.370Z,24.20
2019-04-22T23:31:37.634Z,24.30
2019-04-22T23:34:22.718Z,24.30
2019-04-22T23:37:15.145Z,24.30
2019-04-22T23:39:58.649Z,24.30
2019-04-22T23:42:33.786Z,24.30
2019-04-22T23:45:13.914Z,24.30
2019-04-22T23:47:44.863Z,24.20
2019-04-22T23:50:31.067Z,24.20
2019-04-22T23:53:58.091Z,24.20
2019-04-22T23:56:16.937Z,24.20
2019-04-22T23:59:04.767Z,24.20
